createdAt,value
2022-09-15T00:02:13.803Z,3.17
2022-09-15T00:04:40.354Z,3.20
2022-09-15T00:07:07.005Z,3.10
2022-09-15T00:09:33.563Z,3.00
2022-09-15T00:12:00.134Z,2.85
2022-09-15T00:14:26.652Z,2.78
2022-09-15T00:16:53.212Z,2.95
2022-09-15T00:19:19.669Z,3.00
2022-09-15T00:21:46.510Z,2.90
2022-09-15T00:24:13.044Z,3.50
2022-09-15T00:26:39.657Z,3.30
2022-09-15T00:29:06.189Z,2.80
2022-09-15T00:31:33.421Z,3.28
2022-09-15T00:34:04.941Z,3.08
2022-09-15T00:36:31.849Z,2.90
2022-09-15T00:38:58.915Z,3.08
2022-09-15T00:41:25.655Z,3.15
2022-09-15T00:43:56.658Z,3.60
2022-09-15T00:46:28.438Z,3.28
2022-09-15T00:49:09.341Z,3.45
2022-09-15T00:51:45.373Z,3.45
2022-09-15T00:54:17.537Z,3.40
2022-09-15T00:56:47.083Z,3.28
2022-09-15T00:59:18.907Z,3.28
2022-09-15T01:01:47.242Z,3.67
2022-09-15T01:04:15.735Z,3.45
2022-09-15T01:06:50.564Z,3.20
2022-09-15T01:09:26.995Z,3.30
2022-09-15T01:11:53.553Z,3.90
2022-09-15T01:14:20.046Z,3.40
2022-09-15T01:17:07.023Z,3.17
2022-09-15T01:19:52.320Z,3.45
2022-09-15T01:22:57.323Z,3.78
2022-09-15T01:25:48.566Z,3.83
2022-09-15T01:28:20.773Z,3.97
2022-09-15T01:30:55.779Z,3.50
2022-09-15T01:33:37.421Z,3.47
2022-09-15T01:36:09.921Z,3.60
2022-09-15T01:38:40.318Z,3.55
2022-09-15T01:41:14.412Z,3.72
2022-09-15T01:43:57.117Z,3.63
2022-09-15T01:46:26.553Z,3.35
2022-09-15T01:48:57.140Z,3.60
2022-09-15T01:51:26.787Z,3.90
2022-09-15T01:53:55.002Z,3.50
2022-09-15T01:56:21.627Z,3.63
2022-09-15T01:58:51.023Z,3.95
2022-09-15T02:01:28.247Z,3.88
2022-09-15T02:04:05.351Z,3.83
2022-09-15T02:06:39.712Z,3.85
2022-09-15T02:09:23.698Z,3.55
2022-09-15T02:12:19.963Z,4.28
2022-09-15T02:15:03.458Z,4.43
2022-09-15T02:17:32.650Z,3.65
2022-09-15T02:20:15.565Z,3.95
2022-09-15T02:22:47.598Z,4.03
2022-09-15T02:25:18.724Z,4.47
2022-09-15T02:27:51.273Z,5.15
2022-09-15T02:30:19.924Z,7.28
2022-09-15T02:32:56.266Z,4.57
2022-09-15T02:35:25.979Z,6.65
2022-09-15T02:37:53.690Z,4.80
2022-09-15T02:40:21.559Z,4.30
2022-09-15T02:43:03.717Z,5.03
2022-09-15T02:45:31.425Z,4.25
2022-09-15T02:47:58.845Z,4.32
2022-09-15T02:50:26.697Z,4.47
2022-09-15T02:52:56.821Z,4.90
2022-09-15T02:55:24.163Z,4.50
2022-09-15T02:57:50.685Z,4.10
2022-09-15T03:00:19.387Z,4.53
2022-09-15T03:02:51.953Z,4.15
2022-09-15T03:05:21.469Z,4.05
2022-09-15T03:07:48.538Z,4.30
2022-09-15T03:10:15.114Z,4.07
2022-09-15T03:12:44.504Z,4.22
2022-09-15T03:15:13.075Z,4.38
2022-09-15T03:17:41.874Z,4.15
2022-09-15T03:20:10.671Z,5.40
2022-09-15T03:22:37.493Z,4.35
2022-09-15T03:25:05.560Z,4.25
2022-09-15T03:27:33.193Z,4.03
2022-09-15T03:29:59.726Z,3.72
2022-09-15T03:32:26.249Z,4.18
2022-09-15T03:34:56.438Z,4.30
2022-09-15T03:37:25.299Z,4.00
2022-09-15T03:39:51.871Z,4.63
2022-09-15T03:42:18.665Z,4.45
2022-09-15T03:44:45.130Z,4.60
2022-09-15T03:47:11.601Z,4.88
2022-09-15T03:49:38.510Z,4.85
2022-09-15T03:52:05.168Z,4.90
2022-09-15T03:54:31.778Z,4.90
2022-09-15T03:56:58.474Z,4.38
2022-09-15T03:59:24.987Z,4.88
2022-09-15T04:01:51.685Z,4.88
2022-09-15T04:04:18.214Z,4.80
2022-09-15T04:06:44.990Z,5.22
2022-09-15T04:09:11.877Z,4.32
2022-09-15T04:11:39.561Z,4.93
2022-09-15T04:14:06.047Z,4.60
2022-09-15T04:16:32.585Z,4.97
2022-09-15T04:18:59.330Z,4.20
2022-09-15T04:21:26.752Z,4.57
2022-09-15T04:23:54.127Z,4.22
2022-09-15T04:26:26.127Z,4.40
2022-09-15T04:28:52.762Z,4.72
2022-09-15T04:31:20.425Z,5.13
2022-09-15T04:33:47.693Z,4.45
2022-09-15T04:36:17.790Z,4.93
2022-09-15T04:38:44.932Z,4.30
2022-09-15T04:41:12.325Z,4.40
2022-09-15T04:43:39.091Z,4.63
2022-09-15T04:46:06.679Z,4.18
2022-09-15T04:48:33.619Z,4.30
2022-09-15T04:51:21.191Z,4.28
2022-09-15T04:53:48.188Z,3.95
2022-09-15T04:56:21.188Z,3.85
2022-09-15T04:58:55.712Z,3.85
2022-09-15T05:01:29.512Z,4.10
2022-09-15T05:03:56.634Z,4.05
2022-09-15T05:06:27.406Z,4.15
2022-09-15T05:08:57.046Z,3.90
2022-09-15T05:11:24.861Z,3.58
2022-09-15T05:13:51.996Z,3.83
2022-09-15T05:16:26.086Z,4.53
2022-09-15T05:18:54.559Z,4.43
2022-09-15T05:21:23.399Z,4.00
2022-09-15T05:23:51.909Z,3.50
2022-09-15T05:26:21.268Z,4.35
2022-09-15T05:28:47.804Z,4.60
2022-09-15T05:31:20.392Z,4.55
2022-09-15T05:33:48.903Z,4.80
2022-09-15T05:36:17.312Z,4.95
2022-09-15T05:38:44.456Z,4.88
2022-09-15T05:41:12.650Z,4.55
2022-09-15T05:43:40.011Z,4.80
2022-09-15T05:46:07.709Z,5.10
2022-09-15T05:48:37.872Z,4.35
2022-09-15T05:51:05.121Z,4.88
2022-09-15T05:53:35.032Z,4.43
2022-09-15T05:56:05.134Z,5.63
2022-09-15T05:58:31.821Z,5.63
2022-09-15T06:01:05.435Z,6.18
2022-09-15T06:03:34.206Z,5.60
2022-09-15T06:06:02.591Z,5.63
2022-09-15T06:08:34.674Z,5.07
2022-09-15T06:11:06.047Z,5.95
2022-09-15T06:13:33.178Z,5.53
2022-09-15T06:16:06.644Z,5.55
2022-09-15T06:18:35.571Z,5.00
2022-09-15T06:21:10.045Z,5.68
2022-09-15T06:23:37.487Z,5.18
2022-09-15T06:26:06.496Z,5.18
2022-09-15T06:28:33.744Z,4.63
2022-09-15T06:31:00.237Z,4.63
2022-09-15T06:33:27.606Z,4.70
2022-09-15T06:35:54.292Z,4.88
2022-09-15T06:38:20.872Z,4.28
2022-09-15T06:41:08.257Z,4.80
2022-09-15T06:43:36.287Z,4.80
2022-09-15T06:46:14.799Z,4.90
2022-09-15T06:48:44.293Z,4.82
2022-09-15T06:51:15.425Z,4.32
2022-09-15T06:53:41.966Z,4.68
2022-09-15T06:56:14.785Z,4.75
2022-09-15T06:58:42.895Z,4.18
2022-09-15T07:01:19.442Z,4.22
2022-09-15T07:03:46.002Z,4.13
2022-09-15T07:06:13.031Z,3.90
2022-09-15T07:08:40.683Z,4.50
2022-09-15T07:11:08.465Z,4.28
2022-09-15T07:13:35.498Z,4.10
2022-09-15T07:16:04.795Z,4.43
2022-09-15T07:18:32.569Z,3.65
2022-09-15T07:21:01.108Z,4.43
2022-09-15T07:23:28.031Z,3.92
2022-09-15T07:26:12.183Z,3.78
2022-09-15T07:28:39.835Z,3.38
2022-09-15T07:31:07.700Z,3.97
2022-09-15T07:33:34.870Z,3.90
2022-09-15T07:36:02.860Z,3.40
2022-09-15T07:38:29.881Z,3.63
2022-09-15T07:41:04.297Z,3.30
2022-09-15T07:43:31.531Z,3.58
2022-09-15T07:45:59.146Z,3.40
2022-09-15T07:48:26.574Z,3.33
2022-09-15T07:50:53.430Z,3.08
2022-09-15T07:53:20.801Z,2.88
2022-09-15T07:55:53.287Z,3.08
2022-09-15T07:58:19.954Z,3.17
2022-09-15T08:00:47.478Z,3.30
2022-09-15T08:03:15.366Z,3.25
2022-09-15T08:05:45.420Z,3.55
2022-09-15T08:08:12.357Z,3.33
2022-09-15T08:10:42.209Z,3.17
2022-09-15T08:13:08.863Z,3.10
2022-09-15T08:15:38.811Z,3.10
2022-09-15T08:18:06.204Z,3.38
2022-09-15T08:20:33.446Z,2.92
2022-09-15T08:23:00.324Z,3.05
2022-09-15T08:25:26.815Z,3.45
2022-09-15T08:27:54.156Z,3.13
2022-09-15T08:30:21.301Z,4.05
2022-09-15T08:32:48.339Z,3.45
2022-09-15T08:35:16.709Z,3.72
2022-09-15T08:37:43.385Z,3.08
2022-09-15T08:40:32.363Z,3.20
2022-09-15T08:43:03.620Z,2.97
2022-09-15T08:45:45.013Z,2.80
2022-09-15T08:48:15.941Z,2.95
2022-09-15T08:50:47.607Z,2.97
2022-09-15T08:53:20.759Z,3.22
2022-09-15T08:55:52.566Z,3.03
2022-09-15T08:58:20.389Z,2.83
2022-09-15T09:00:51.801Z,2.47
2022-09-15T09:03:53.536Z,2.80
2022-09-15T09:06:47.321Z,2.70
2022-09-15T09:09:25.631Z,3.08
2022-09-15T09:12:05.483Z,2.83
2022-09-15T09:14:56.077Z,2.00
2022-09-15T09:17:41.285Z,2.08
2022-09-15T09:20:33.904Z,2.80
2022-09-15T09:23:04.214Z,2.28
2022-09-15T09:25:31.255Z,2.10
2022-09-15T09:27:58.642Z,2.25
2022-09-15T09:30:29.594Z,2.53
2022-09-15T09:33:24.935Z,2.22
2022-09-15T09:35:55.567Z,2.50
2022-09-15T09:38:41.713Z,2.30
2022-09-15T09:41:17.179Z,1.93
2022-09-15T09:43:47.461Z,2.07
2022-09-15T09:46:17.622Z,2.03
2022-09-15T09:48:50.137Z,2.13
2022-09-15T09:51:32.985Z,2.05
2022-09-15T09:54:16.358Z,2.42
2022-09-15T09:56:44.358Z,1.95
2022-09-15T09:59:47.440Z,2.40
2022-09-15T10:02:20.579Z,2.15
2022-09-15T10:05:16.851Z,2.15
2022-09-15T10:07:46.305Z,1.95
2022-09-15T10:10:24.937Z,2.35
2022-09-15T10:12:56.492Z,2.13
2022-09-15T10:15:32.277Z,2.33
2022-09-15T10:17:58.924Z,1.90
2022-09-15T10:20:45.633Z,1.95
2022-09-15T10:23:18.096Z,2.08
2022-09-15T10:26:01.055Z,2.13
2022-09-15T10:28:28.099Z,2.30
2022-09-15T10:31:13.307Z,2.88
2022-09-15T10:33:50.731Z,2.15
2022-09-15T10:36:31.898Z,1.98
2022-09-15T10:39:10.425Z,2.20
2022-09-15T10:41:58.870Z,2.83
2022-09-15T10:44:49.615Z,2.20
2022-09-15T10:47:49.477Z,2.50
2022-09-15T10:50:32.226Z,2.00
2022-09-15T10:53:31.680Z,1.98
2022-09-15T10:56:15.487Z,2.22
2022-09-15T10:59:06.549Z,2.25
2022-09-15T11:01:33.444Z,1.75
2022-09-15T11:04:24.930Z,2.28
2022-09-15T11:07:19.579Z,2.42
2022-09-15T11:09:57.402Z,1.92
2022-09-15T11:12:33.014Z,1.98
2022-09-15T11:15:05.495Z,2.05
2022-09-15T11:18:01.849Z,2.20
2022-09-15T11:20:39.246Z,1.98
2022-09-15T11:23:34.028Z,1.90
2022-09-15T11:26:07.909Z,2.40
2022-09-15T11:28:54.992Z,1.90
2022-09-15T11:31:41.981Z,2.35
2022-09-15T11:34:24.006Z,2.35
2022-09-15T11:37:14.017Z,2.00
2022-09-15T11:40:23.764Z,1.67
2022-09-15T11:43:03.565Z,1.92
2022-09-15T11:45:45.287Z,1.88
2022-09-15T11:48:23.972Z,2.08
2022-09-15T11:50:53.494Z,1.90
2022-09-15T11:53:43.743Z,2.38
2022-09-15T11:56:26.788Z,1.90
2022-09-15T11:59:21.161Z,1.80
2022-09-15T12:01:59.508Z,2.17
2022-09-15T12:04:31.355Z,1.77
2022-09-15T12:07:15.898Z,1.67
2022-09-15T12:09:42.654Z,2.05
2022-09-15T12:12:15.783Z,2.40
2022-09-15T12:14:44.946Z,2.20
2022-09-15T12:17:34.855Z,1.92
2022-09-15T12:20:12.521Z,2.40
2022-09-15T12:22:45.892Z,2.30
2022-09-15T12:25:19.988Z,2.20
2022-09-15T12:28:23.949Z,2.10
2022-09-15T12:31:29.276Z,2.15
2022-09-15T12:34:24.447Z,1.95
2022-09-15T12:36:54.559Z,2.28
2022-09-15T12:39:23.984Z,2.97
2022-09-15T12:41:53.721Z,2.75
2022-09-15T12:44:37.260Z,2.28
2022-09-15T12:47:17.256Z,2.58
2022-09-15T12:49:47.689Z,2.10
2022-09-15T12:52:15.938Z,2.05
2022-09-15T12:54:49.988Z,2.58
2022-09-15T12:57:49.623Z,2.45
2022-09-15T13:00:50.031Z,2.38
2022-09-15T13:06:24.122Z,2.53
2022-09-15T13:09:05.756Z,2.30
2022-09-15T13:11:38.585Z,2.33
2022-09-15T13:14:08.147Z,2.42
2022-09-15T13:16:40.668Z,1.98
2022-09-15T13:19:13.824Z,2.30
2022-09-15T13:21:43.873Z,2.13
2022-09-15T13:24:37.380Z,1.90
2022-09-15T13:27:07.414Z,1.92
2022-09-15T13:29:43.571Z,1.83
2022-09-15T13:32:31.973Z,2.00
2022-09-15T13:35:24.994Z,2.13
2022-09-15T13:38:21.244Z,2.30
2022-09-15T13:41:02.360Z,1.83
2022-09-15T13:43:59.796Z,2.30
2022-09-15T13:46:35.361Z,1.85
2022-09-15T13:49:32.159Z,1.80
2022-09-15T13:52:23.406Z,1.70
2022-09-15T13:55:12.608Z,2.10
2022-09-15T14:00:34.123Z,2.20
2022-09-15T14:03:10.460Z,1.98
2022-09-15T14:10:39.955Z,1.95
2022-09-15T14:13:06.475Z,2.08
2022-09-15T14:15:33.838Z,1.95
2022-09-15T14:18:00.505Z,2.40
2022-09-15T14:20:32.288Z,2.10
2022-09-15T14:23:00.347Z,2.35
2022-09-15T14:25:31.019Z,2.30
2022-09-15T14:27:57.767Z,2.03
2022-09-15T14:30:34.774Z,1.83
2022-09-15T14:33:02.798Z,2.03
2022-09-15T14:35:36.803Z,2.08
2022-09-15T14:38:03.730Z,2.03
2022-09-15T14:40:39.487Z,2.17
2022-09-15T14:43:26.789Z,1.80
2022-09-15T14:45:56.676Z,1.90
2022-09-15T14:48:26.849Z,2.10
2022-09-15T14:51:01.966Z,2.08
2022-09-15T14:53:31.170Z,2.55
2022-09-15T14:56:19.311Z,2.55
2022-09-15T14:58:52.721Z,1.75
2022-09-15T15:01:26.535Z,2.10
2022-09-15T15:04:10.229Z,2.38
2022-09-15T15:06:47.819Z,2.30
2022-09-15T15:09:34.570Z,1.95
2022-09-15T15:12:06.371Z,2.15
2022-09-15T15:14:34.651Z,1.98
2022-09-15T15:17:06.234Z,1.95
2022-09-15T15:19:38.076Z,2.10
2022-09-15T15:22:13.847Z,2.17
2022-09-15T15:24:44.141Z,1.77
2022-09-15T15:27:32.697Z,2.00
2022-09-15T15:30:26.694Z,2.28
2022-09-15T15:32:54.182Z,2.03
2022-09-15T15:35:21.367Z,1.70
2022-09-15T15:37:49.370Z,2.10
2022-09-15T15:40:23.451Z,2.05
2022-09-15T15:42:57.835Z,1.90
2022-09-15T15:45:32.542Z,1.90
2022-09-15T15:48:01.133Z,1.88
2022-09-15T15:50:28.286Z,2.22
2022-09-15T15:52:55.246Z,1.70
2022-09-15T15:55:24.467Z,2.00
2022-09-15T15:57:55.539Z,2.72
2022-09-15T16:00:32.904Z,2.03
2022-09-15T16:02:59.534Z,2.00
2022-09-15T16:05:28.014Z,1.88
2022-09-15T16:07:57.043Z,2.03
2022-09-15T16:10:27.992Z,2.08
2022-09-15T16:12:54.459Z,2.08
2022-09-15T16:15:21.623Z,2.00
2022-09-15T16:17:49.006Z,2.05
2022-09-15T16:20:16.334Z,2.17
2022-09-15T16:22:43.637Z,2.63
2022-09-15T16:25:17.187Z,2.42
2022-09-15T16:27:43.951Z,2.05
2022-09-15T16:30:13.976Z,2.20
2022-09-15T16:32:42.880Z,2.17
2022-09-15T16:35:21.686Z,2.10
2022-09-15T16:37:48.230Z,2.00
2022-09-15T16:40:15.306Z,1.92
2022-09-15T16:42:42.009Z,2.00
2022-09-15T16:45:35.168Z,1.60
2022-09-15T16:48:04.817Z,2.03
2022-09-15T16:50:31.587Z,1.88
2022-09-15T16:52:59.310Z,2.10
2022-09-15T16:55:38.965Z,2.15
2022-09-15T16:58:06.209Z,1.92
2022-09-15T17:00:36.065Z,2.50
2022-09-15T17:03:07.346Z,1.98
2022-09-15T17:05:39.397Z,1.85
2022-09-15T17:08:07.476Z,2.20
2022-09-15T17:10:34.845Z,2.30
2022-09-15T17:13:01.700Z,3.08
2022-09-15T17:15:36.669Z,3.70
2022-09-15T17:18:04.124Z,4.53
2022-09-15T17:20:31.720Z,3.35
2022-09-15T17:22:59.555Z,2.38
2022-09-15T17:25:33.882Z,2.20
2022-09-15T17:28:00.829Z,4.28
2022-09-15T17:30:30.209Z,2.55
2022-09-15T17:33:05.172Z,2.65
2022-09-15T17:35:34.489Z,4.18
2022-09-15T17:38:01.731Z,3.63
2022-09-15T17:40:28.950Z,4.20
2022-09-15T17:42:55.870Z,4.03
2022-09-15T17:45:28.331Z,3.70
2022-09-15T17:47:54.770Z,2.72
2022-09-15T17:50:23.542Z,2.53
2022-09-15T17:52:50.158Z,2.60
2022-09-15T17:55:27.206Z,3.03
2022-09-15T17:57:54.910Z,3.40
2022-09-15T18:00:22.490Z,2.70
2022-09-15T18:02:51.943Z,2.42
2022-09-15T18:05:29.652Z,3.42
2022-09-15T18:07:58.756Z,3.20
2022-09-15T18:10:26.591Z,3.65
2022-09-15T18:12:56.947Z,3.17
2022-09-15T18:15:29.651Z,4.13
2022-09-15T18:17:58.759Z,3.30
2022-09-15T18:20:28.426Z,3.40
2022-09-15T18:22:56.332Z,3.83
2022-09-15T18:25:38.555Z,5.90
2022-09-15T18:28:05.368Z,4.63
2022-09-15T18:30:41.127Z,3.85
2022-09-15T18:33:13.731Z,4.80
2022-09-15T18:35:41.192Z,3.63
2022-09-15T18:38:08.232Z,2.72
2022-09-15T18:40:34.760Z,3.15
2022-09-15T18:43:01.391Z,3.20
2022-09-15T18:45:28.708Z,3.03
2022-09-15T18:47:55.241Z,2.92
2022-09-15T18:50:23.987Z,3.45
2022-09-15T18:52:50.829Z,2.65
2022-09-15T18:55:20.223Z,3.53
2022-09-15T18:57:47.366Z,3.55
2022-09-15T19:00:19.894Z,3.47
2022-09-15T19:02:47.552Z,3.60
2022-09-15T19:05:15.670Z,3.45
2022-09-15T19:07:46.014Z,3.63
2022-09-15T19:10:14.431Z,3.50
2022-09-15T19:12:41.017Z,3.40
2022-09-15T19:15:11.075Z,3.35
2022-09-15T19:17:39.374Z,2.70
2022-09-15T19:20:07.469Z,3.50
2022-09-15T19:22:34.574Z,3.60
2022-09-15T19:25:01.266Z,2.97
2022-09-15T19:27:28.179Z,2.50
2022-09-15T19:29:54.774Z,2.42
2022-09-15T19:32:22.200Z,2.22
2022-09-15T19:34:48.995Z,2.63
2022-09-15T19:37:18.785Z,2.72
2022-09-15T19:39:46.235Z,1.90
2022-09-15T19:42:13.330Z,2.25
2022-09-15T19:44:41.224Z,2.10
2022-09-15T19:47:08.471Z,2.17
2022-09-15T19:49:35.166Z,2.05
2022-09-15T19:52:01.939Z,2.90
2022-09-15T19:54:30.750Z,2.40
2022-09-15T19:56:57.918Z,2.15
2022-09-15T19:59:27.519Z,1.67
2022-09-15T20:01:56.834Z,2.10
2022-09-15T20:04:23.426Z,1.88
2022-09-15T20:06:50.116Z,1.95
2022-09-15T20:09:17.035Z,1.77
2022-09-15T20:11:43.706Z,1.90
2022-09-15T20:14:12.292Z,1.90
2022-09-15T20:16:38.908Z,1.58
2022-09-15T20:19:06.164Z,1.70
2022-09-15T20:21:51.393Z,2.05
2022-09-15T20:24:20.313Z,1.92
2022-09-15T20:26:47.404Z,1.88
2022-09-15T20:29:14.381Z,1.88
2022-09-15T20:31:41.125Z,1.65
2022-09-15T20:34:08.228Z,1.90
2022-09-15T20:36:38.431Z,2.00
2022-09-15T20:39:09.330Z,2.17
2022-09-15T20:41:36.933Z,1.98
2022-09-15T20:44:03.755Z,1.80
2022-09-15T20:46:31.333Z,1.67
2022-09-15T20:48:58.010Z,1.70
2022-09-15T20:51:27.929Z,1.52
2022-09-15T20:53:56.896Z,1.80
2022-09-15T20:56:28.651Z,1.95
2022-09-15T20:58:58.432Z,2.13
2022-09-15T21:01:28.105Z,2.05
2022-09-15T21:03:55.521Z,1.60
2022-09-15T21:06:25.180Z,2.00
2022-09-15T21:08:52.071Z,1.70
2022-09-15T21:11:20.655Z,2.00
2022-09-15T21:13:48.540Z,1.75
2022-09-15T21:16:20.802Z,1.90
2022-09-15T21:18:48.306Z,2.15
2022-09-15T21:21:25.106Z,1.90
2022-09-15T21:23:54.753Z,2.10
2022-09-15T21:26:24.079Z,1.80
2022-09-15T21:28:50.890Z,1.70
2022-09-15T21:31:26.247Z,1.67
2022-09-15T21:33:54.224Z,2.00
2022-09-15T21:36:23.187Z,2.10
2022-09-15T21:38:51.563Z,2.03
2022-09-15T21:41:21.454Z,1.90
2022-09-15T21:43:48.719Z,1.90
2022-09-15T21:46:18.270Z,1.67
2022-09-15T21:48:48.054Z,1.50
2022-09-15T21:51:21.940Z,1.92
2022-09-15T21:53:52.105Z,1.95
2022-09-15T21:56:18.755Z,2.13
2022-09-15T21:58:45.594Z,1.85
2022-09-15T22:01:20.659Z,1.50
2022-09-15T22:03:50.663Z,2.03
2022-09-15T22:06:18.338Z,1.90
2022-09-15T22:09:41.305Z,1.38
2022-09-15T22:12:08.521Z,1.48
2022-09-15T22:14:35.217Z,1.50
2022-09-15T22:17:01.711Z,2.03
2022-09-15T22:19:29.180Z,1.60
2022-09-15T22:21:55.627Z,1.70
2022-09-15T22:24:22.201Z,1.83
2022-09-15T22:26:48.910Z,1.45
2022-09-15T22:29:15.429Z,1.63
2022-09-15T22:31:42.265Z,1.65
2022-09-15T22:34:09.036Z,1.73
2022-09-15T22:36:35.539Z,1.90
2022-09-15T22:39:05.292Z,1.60
2022-09-15T22:41:38.432Z,1.40
2022-09-15T22:44:05.942Z,1.40
2022-09-15T22:46:32.760Z,1.60
2022-09-15T22:48:59.871Z,1.40
2022-09-15T22:51:26.465Z,1.85
2022-09-15T22:53:54.712Z,1.33
2022-09-15T22:56:21.526Z,1.35
2022-09-15T22:58:49.703Z,1.70
2022-09-15T23:01:18.897Z,1.48
2022-09-15T23:04:07.019Z,1.30
2022-09-15T23:06:34.374Z,1.30
2022-09-15T23:09:06.441Z,1.23
2022-09-15T23:11:33.749Z,1.30
2022-09-15T23:14:01.303Z,1.50
2022-09-15T23:16:28.499Z,1.35
2022-09-15T23:18:58.150Z,1.33
2022-09-15T23:21:25.150Z,1.45
2022-09-15T23:23:54.053Z,1.00
2022-09-15T23:26:22.393Z,1.50
2022-09-15T23:28:51.815Z,1.40
2022-09-15T23:31:19.204Z,1.02
2022-09-15T23:33:46.896Z,1.20
2022-09-15T23:36:16.536Z,1.17
2022-09-15T23:38:45.228Z,1.38
2022-09-15T23:41:13.962Z,1.40
2022-09-15T23:43:43.769Z,1.33
2022-09-15T23:46:10.830Z,1.05
2022-09-15T23:48:37.810Z,1.27
2022-09-15T23:51:05.262Z,1.40
2022-09-15T23:53:31.944Z,1.13
2022-09-15T23:55:58.451Z,1.50
2022-09-15T23:58:25.160Z,1.75
